Time;durP1;ratioP1;P1;durP2;ratioP2;P2;SDS_P1;SDS_P2;PMS_P1;PMS_P2;Temp;Humidity;BMP_temperature;BMP_pressure;BME280_temperature;BME280_humidity;BME280_pressure;Samples;Min_cycle;Max_cycle;Signal;HPM_P1;HPM_P2
2023/11/06 00:00:38;;;;;;;22.55;4.00;;;9.40;99.90;;;;;;5051282;28;20029;-74
2023/11/06 00:03:03;;;;;;;10.05;3.25;;;9.40;99.90;;;;;;5054354;28;20032;-73
2023/11/06 00:05:29;;;;;;;12.23;3.60;;;9.30;99.90;;;;;;5054050;28;20020;-75
2023/11/06 00:07:55;;;;;;;16.70;4.53;;;9.30;99.90;;;;;;5054384;28;20053;-75
2023/11/06 00:10:20;;;;;;;18.23;3.55;;;9.40;99.90;;;;;;5054240;28;20093;-76
2023/11/06 00:12:46;;;;;;;13.55;3.83;;;9.30;99.90;;;;;;5052382;28;20032;-76
2023/11/06 00:15:14;;;;;;;15.90;4.30;;;9.30;99.90;;;;;;5053376;28;20034;-76
2023/11/06 00:17:40;;;;;;;15.85;4.75;;;9.30;99.90;;;;;;5052743;28;20029;-75
2023/11/06 00:20:10;;;;;;;17.98;5.18;;;9.30;99.90;;;;;;5053215;28;20137;-76
2023/11/06 00:22:36;;;;;;;14.40;4.65;;;9.30;99.90;;;;;;5053824;28;20045;-74
2023/11/06 00:25:06;;;;;;;17.23;5.55;;;9.30;99.90;;;;;;5054307;28;20033;-72
2023/11/06 00:27:31;;;;;;;20.60;5.32;;;9.30;99.90;;;;;;5052422;28;20393;-75
2023/11/06 00:29:58;;;;;;;13.18;4.78;;;9.30;99.90;;;;;;5053824;28;20025;-76
2023/11/06 00:32:24;;;;;;;17.77;4.85;;;9.40;99.90;;;;;;5053669;28;20481;-74
2023/11/06 00:34:49;;;;;;;16.80;5.22;;;9.30;99.90;;;;;;5052100;28;20033;-74
2023/11/06 00:37:15;;;;;;;18.02;4.90;;;9.20;99.90;;;;;;5051527;28;20067;-74
2023/11/06 00:39:42;;;;;;;13.00;4.53;;;9.30;99.90;;;;;;5052003;28;20029;-75
2023/11/06 00:42:08;;;;;;;16.75;5.00;;;9.30;99.90;;;;;;5051793;28;20025;-74
2023/11/06 00:44:34;;;;;;;19.35;5.25;;;9.40;99.90;;;;;;5051574;28;20025;-73
2023/11/06 00:46:59;;;;;;;13.60;4.35;;;9.30;99.90;;;;;;5051793;28;20785;-75
2023/11/06 00:49:25;;;;;;;15.40;4.80;;;9.20;99.90;;;;;;5053384;28;20037;-74
2023/11/06 00:51:51;;;;;;;13.90;4.63;;;9.10;99.90;;;;;;5053996;28;20033;-75
2023/11/06 00:54:17;;;;;;;15.60;4.15;;;9.10;99.90;;;;;;5051973;28;20037;-74
2023/11/06 00:56:43;;;;;;;15.30;4.03;;;9.30;99.90;;;;;;5052912;28;20083;-78
2023/11/06 00:59:09;;;;;;;20.30;4.95;;;9.20;99.90;;;;;;5053078;28;20025;-77
2023/11/06 01:01:34;;;;;;;12.45;4.30;;;9.20;99.90;;;;;;5051749;28;20052;-75
2023/11/06 01:04:01;;;;;;;17.20;4.40;;;9.30;99.90;;;;;;5052874;28;20021;-75
2023/11/06 01:06:27;;;;;;;15.88;4.25;;;9.20;99.90;;;;;;5053200;28;20026;-73
2023/11/06 01:08:54;;;;;;;9.43;4.00;;;9.30;99.90;;;;;;5053280;28;20021;-74
2023/11/06 01:11:20;;;;;;;17.15;4.20;;;9.20;99.90;;;;;;5052416;28;20032;-72
2023/11/06 01:13:46;;;;;;;12.57;4.07;;;9.20;99.90;;;;;;5053293;28;20028;-75
2023/11/06 01:16:13;;;;;;;14.40;4.28;;;9.20;99.90;;;;;;5053178;28;20504;-78
2023/11/06 01:18:38;;;;;;;15.25;3.97;;;9.20;99.90;;;;;;5052527;28;20017;-75
2023/11/06 01:21:05;;;;;;;18.73;4.05;;;9.20;99.90;;;;;;5052693;28;20071;-73
2023/11/06 01:23:31;;;;;;;10.60;3.85;;;9.10;99.90;;;;;;5052492;28;20045;-73
2023/11/06 01:25:56;;;;;;;9.25;3.65;;;9.20;99.90;;;;;;5051404;28;20036;-70
2023/11/06 01:28:22;;;;;;;12.63;4.20;;;9.20;99.90;;;;;;5052015;28;20111;-76
2023/11/06 01:30:47;;;;;;;17.02;4.65;;;9.20;99.90;;;;;;5052300;28;20025;-75
2023/11/06 01:33:15;;;;;;;13.00;4.40;;;9.20;99.90;;;;;;5052846;28;20083;-74
2023/11/06 01:35:41;;;;;;;14.20;4.28;;;9.00;99.90;;;;;;5052737;28;20442;-73
2023/11/06 01:38:07;;;;;;;11.20;4.20;;;9.10;99.90;;;;;;5052267;28;20067;-71
2023/11/06 01:40:33;;;;;;;21.88;5.70;;;9.10;99.90;;;;;;5052470;28;20029;-74
2023/11/06 01:43:06;;;;;;;23.95;5.20;;;9.10;99.90;;;;;;5052213;28;20453;-71
2023/11/06 01:45:33;;;;;;;16.75;5.63;;;9.10;99.90;;;;;;5051020;28;20025;-74
2023/11/06 01:48:00;;;;;;;13.40;5.38;;;9.10;99.90;;;;;;5052259;28;20443;-74
2023/11/06 01:50:28;;;;;;;15.52;5.63;;;9.00;99.90;;;;;;5051996;28;20025;-75
2023/11/06 01:52:54;;;;;;;14.55;4.85;;;9.00;99.90;;;;;;5050808;28;20041;-73
2023/11/06 01:55:21;;;;;;;13.98;5.30;;;9.00;99.90;;;;;;5051186;28;20033;-75
2023/11/06 01:57:47;;;;;;;18.10;5.75;;;9.00;99.90;;;;;;5051998;28;20048;-76
2023/11/06 02:00:13;;;;;;;18.80;5.50;;;9.00;99.90;;;;;;5052418;28;20087;-74
2023/11/06 02:02:43;;;;;;;9.93;4.97;;;9.00;99.90;;;;;;5051926;28;20025;-75
2023/11/06 02:05:10;;;;;;;15.15;5.13;;;9.00;99.90;;;;;;5051800;28;20030;-74
2023/11/06 02:07:37;;;;;;;12.80;5.30;;;9.00;99.90;;;;;;5051522;28;20025;-72
2023/11/06 02:10:03;;;;;;;15.10;5.20;;;9.00;99.90;;;;;;5052010;28;20500;-74
2023/11/06 02:12:28;;;;;;;11.32;5.05;;;9.00;99.90;;;;;;5050225;28;20120;-75
2023/11/06 02:14:57;;;;;;;15.70;4.53;;;8.90;99.90;;;;;;5051662;28;20398;-74
2023/11/06 02:17:25;;;;;;;12.52;5.20;;;8.90;99.90;;;;;;5050829;28;20045;-74
2023/11/06 02:19:52;;;;;;;9.77;4.35;;;8.90;99.90;;;;;;5051755;28;20168;-71
2023/11/06 02:22:22;;;;;;;8.75;4.40;;;8.90;99.90;;;;;;5050271;28;20045;-73
2023/11/06 02:24:50;;;;;;;11.40;4.70;;;8.90;99.90;;;;;;5051457;28;21394;-76
2023/11/06 02:27:17;;;;;;;14.95;4.97;;;8.90;99.90;;;;;;5050116;28;20029;-73
2023/11/06 02:29:43;;;;;;;10.35;4.57;;;8.80;99.90;;;;;;5051918;28;20067;-75
2023/11/06 02:32:09;;;;;;;13.77;4.68;;;8.90;99.90;;;;;;5049911;28;20112;-73
2023/11/06 02:34:37;;;;;;;14.32;4.53;;;8.80;99.90;;;;;;5050327;28;20111;-74
2023/11/06 02:37:04;;;;;;;10.63;4.63;;;8.80;99.90;;;;;;5047288;28;20044;-74
2023/11/06 02:39:33;;;;;;;15.95;5.20;;;8.80;99.90;;;;;;5051163;28;20040;-75
2023/11/06 02:42:00;;;;;;;12.45;4.72;;;8.70;99.90;;;;;;5050832;28;20017;-74
2023/11/06 02:44:27;;;;;;;11.15;4.40;;;8.70;99.90;;;;;;5051341;28;20351;-73
2023/11/06 02:46:52;;;;;;;14.20;5.35;;;8.80;99.90;;;;;;5050180;28;20018;-74
2023/11/06 02:49:18;;;;;;;17.75;5.35;;;8.70;99.90;;;;;;5051520;28;20025;-73
2023/11/06 02:51:44;;;;;;;14.32;5.22;;;8.70;99.90;;;;;;5049982;28;20064;-72
2023/11/06 02:54:09;;;;;;;14.18;5.60;;;8.80;99.90;;;;;;5050628;28;20140;-71
2023/11/06 02:56:35;;;;;;;16.58;5.72;;;8.90;99.90;;;;;;5050667;28;20039;-76
2023/11/06 02:59:04;;;;;;;15.40;6.07;;;8.70;99.90;;;;;;5050965;28;20021;-74
2023/11/06 03:01:31;;;;;;;16.33;5.93;;;8.70;99.90;;;;;;5049706;28;20032;-73
2023/11/06 03:03:58;;;;;;;12.50;6.25;;;8.80;99.90;;;;;;5051357;28;20140;-73
2023/11/06 03:06:27;;;;;;;14.90;6.75;;;8.80;99.90;;;;;;5050912;28;20017;-74
2023/11/06 03:08:54;;;;;;;15.15;6.40;;;8.80;99.90;;;;;;5048655;28;20032;-74
2023/11/06 03:11:20;;;;;;;13.23;6.90;;;8.80;99.90;;;;;;5049104;28;20036;-71
2023/11/06 03:13:46;;;;;;;18.25;7.28;;;8.80;99.90;;;;;;5050647;28;20057;-73
2023/11/06 03:16:12;;;;;;;15.20;7.32;;;8.70;99.90;;;;;;5051027;28;20029;-74
2023/11/06 03:18:37;;;;;;;17.27;7.32;;;8.70;99.90;;;;;;5050219;28;20041;-75
2023/11/06 03:21:03;;;;;;;18.35;7.60;;;8.80;99.90;;;;;;5050376;28;20132;-72
2023/11/06 03:23:30;;;;;;;19.60;8.35;;;8.70;99.90;;;;;;5049440;28;20072;-71
2023/11/06 03:25:56;;;;;;;13.73;7.93;;;8.70;99.90;;;;;;5049882;28;20021;-73
2023/11/06 03:28:21;;;;;;;19.58;8.27;;;8.70;99.90;;;;;;5048912;28;20452;-74
2023/11/06 03:30:47;;;;;;;22.42;8.77;;;8.70;99.90;;;;;;5050260;28;20077;-72
2023/11/06 03:33:12;;;;;;;19.83;8.93;;;8.70;99.90;;;;;;5050433;28;20060;-73
2023/11/06 03:35:38;;;;;;;18.85;8.80;;;8.80;99.90;;;;;;5049638;28;20025;-72
2023/11/06 03:38:03;;;;;;;17.92;8.77;;;8.70;99.90;;;;;;5050268;28;20033;-73
2023/11/06 03:40:29;;;;;;;18.42;9.60;;;8.80;99.90;;;;;;5050818;28;20079;-72
2023/11/06 03:42:55;;;;;;;18.70;8.52;;;8.80;99.90;;;;;;5050576;28;20036;-73
2023/11/06 03:45:20;;;;;;;19.77;9.00;;;8.80;99.90;;;;;;5050970;28;20021;-71
2023/11/06 03:47:46;;;;;;;17.33;9.32;;;8.70;99.90;;;;;;5049737;28;20029;-71
2023/11/06 03:50:12;;;;;;;22.08;10.48;;;8.70;99.90;;;;;;5050264;28;20029;-72
2023/11/06 03:52:38;;;;;;;19.92;10.10;;;8.70;99.90;;;;;;5049178;28;20040;-72
2023/11/06 03:55:04;;;;;;;23.15;10.05;;;8.70;99.90;;;;;;5050442;28;20025;-73
2023/11/06 03:57:29;;;;;;;17.25;10.10;;;8.70;99.90;;;;;;5050151;28;20397;-71
2023/11/06 03:59:55;;;;;;;23.77;10.43;;;8.70;99.90;;;;;;5049306;28;20029;-73
2023/11/06 04:02:21;;;;;;;22.08;10.20;;;8.70;99.90;;;;;;5047310;28;20048;-74
2023/11/06 04:04:47;;;;;;;21.92;10.85;;;8.80;99.90;;;;;;5050184;28;20424;-76
2023/11/06 04:07:13;;;;;;;27.63;12.70;;;8.70;99.90;;;;;;5050563;28;20025;-73
2023/11/06 04:09:39;;;;;;;35.13;16.58;;;8.80;99.90;;;;;;5050092;28;20037;-73
2023/11/06 04:12:04;;;;;;;23.27;11.30;;;8.80;99.90;;;;;;5050374;28;20336;-72
2023/11/06 04:14:30;;;;;;;21.02;10.73;;;8.80;99.90;;;;;;5050258;28;20052;-74
2023/11/06 04:16:56;;;;;;;21.75;10.48;;;8.80;99.90;;;;;;5050237;28;20037;-73
2023/11/06 04:19:21;;;;;;;27.02;11.63;;;8.90;99.90;;;;;;5050559;28;20025;-74
2023/11/06 04:21:47;;;;;;;26.25;11.93;;;8.90;99.90;;;;;;5050450;28;20520;-73
2023/11/06 04:24:13;;;;;;;22.85;12.32;;;9.00;99.90;;;;;;5050009;28;20115;-72
2023/11/06 04:26:38;;;;;;;20.17;10.27;;;9.00;99.90;;;;;;5050094;28;20040;-73
2023/11/06 04:29:04;;;;;;;22.80;10.95;;;9.00;99.90;;;;;;5050053;28;20021;-73
2023/11/06 04:31:30;;;;;;;20.55;10.88;;;9.00;99.90;;;;;;5049642;28;20067;-74
2023/11/06 04:33:55;;;;;;;24.20;11.80;;;9.10;99.90;;;;;;5049485;28;20027;-73
2023/11/06 04:36:22;;;;;;;20.27;10.48;;;9.00;99.90;;;;;;5047832;28;20018;-74
2023/11/06 04:38:49;;;;;;;20.75;10.52;;;9.00;99.90;;;;;;5049878;28;20070;-74
2023/11/06 04:41:14;;;;;;;18.85;10.20;;;9.00;99.90;;;;;;5050126;28;20025;-73
2023/11/06 04:43:40;;;;;;;23.75;11.05;;;9.00;99.90;;;;;;5049715;28;20033;-72
2023/11/06 04:46:06;;;;;;;25.13;10.13;;;9.00;99.90;;;;;;5050227;28;20068;-74
2023/11/06 04:48:31;;;;;;;26.55;10.52;;;9.00;99.90;;;;;;5053734;28;20025;-72
2023/11/06 04:50:58;;;;;;;16.88;9.18;;;8.90;99.90;;;;;;5053554;28;20033;-72
2023/11/06 04:53:24;;;;;;;22.88;8.93;;;9.00;99.90;;;;;;5051955;28;20056;-74
2023/11/06 04:55:49;;;;;;;20.05;9.00;;;9.00;99.90;;;;;;5053643;28;20372;-75
2023/11/06 04:58:15;;;;;;;21.38;8.98;;;8.90;99.90;;;;;;5053308;28;20079;-74
2023/11/06 05:00:41;;;;;;;16.35;8.52;;;8.90;99.90;;;;;;5052034;28;20045;-75
2023/11/06 05:03:07;;;;;;;21.73;8.65;;;8.80;99.90;;;;;;5052876;28;20091;-73
2023/11/06 05:05:33;;;;;;;16.98;8.07;;;9.00;99.90;;;;;;5053387;28;20381;-72
2023/11/06 05:07:58;;;;;;;18.45;8.38;;;8.90;99.90;;;;;;5053361;28;20043;-73
2023/11/06 05:10:24;;;;;;;12.43;7.75;;;8.90;99.90;;;;;;5053580;28;20024;-76
2023/11/06 05:12:49;;;;;;;15.77;7.85;;;8.90;99.90;;;;;;5052207;28;20029;-77
2023/11/06 05:15:15;;;;;;;15.70;8.02;;;9.00;99.90;;;;;;5053126;28;20094;-72
2023/11/06 05:17:41;;;;;;;16.83;7.90;;;8.90;99.90;;;;;;5053294;28;20037;-71
2023/11/06 05:20:09;;;;;;;14.48;8.30;;;8.90;99.90;;;;;;5052763;28;20048;-73
2023/11/06 05:22:39;;;;;;;16.05;7.70;;;9.00;99.90;;;;;;5051352;28;20057;-74
2023/11/06 05:25:05;;;;;;;13.63;8.40;;;8.90;99.90;;;;;;5052438;28;20120;-75
2023/11/06 05:27:31;;;;;;;15.88;7.93;;;9.00;99.90;;;;;;5052538;28;20056;-73
2023/11/06 05:29:57;;;;;;;20.55;8.65;;;9.10;99.90;;;;;;5052874;28;20025;-71
2023/11/06 05:32:23;;;;;;;17.35;8.55;;;9.10;99.90;;;;;;5052973;28;20031;-73
2023/11/06 05:34:49;;;;;;;23.27;9.35;;;9.10;99.90;;;;;;5053021;28;20047;-73
2023/11/06 05:37:14;;;;;;;20.23;9.15;;;9.10;99.90;;;;;;5052725;28;20037;-73
2023/11/06 05:39:42;;;;;;;23.70;9.43;;;9.10;99.90;;;;;;5052378;28;20029;-74
2023/11/06 05:42:07;;;;;;;24.13;9.25;;;9.10;99.90;;;;;;5052127;28;20306;-74
2023/11/06 05:44:33;;;;;;;19.10;9.95;;;9.20;99.90;;;;;;5052707;28;20029;-74
2023/11/06 05:47:02;;;;;;;22.15;9.80;;;9.20;99.90;;;;;;5050918;28;20076;-76
2023/11/06 05:49:28;;;;;;;18.65;9.15;;;9.20;99.90;;;;;;5052666;28;20034;-74
2023/11/06 05:51:54;;;;;;;17.83;9.02;;;9.20;99.90;;;;;;5051458;28;20026;-77
2023/11/06 05:54:19;;;;;;;16.98;8.98;;;9.20;99.90;;;;;;5052092;28;20061;-74
2023/11/06 05:56:45;;;;;;;16.70;9.13;;;9.20;99.90;;;;;;5052692;28;20045;-73
2023/11/06 05:59:11;;;;;;;17.67;8.20;;;9.30;99.90;;;;;;5050462;28;20028;-74
2023/11/06 06:01:36;;;;;;;17.30;8.75;;;9.30;99.90;;;;;;5052122;28;20114;-74
2023/11/06 06:04:02;;;;;;;18.88;9.18;;;9.30;99.90;;;;;;5052226;28;20018;-72
2023/11/06 06:06:28;;;;;;;14.65;8.30;;;9.30;99.90;;;;;;5052086;28;20049;-75
2023/11/06 06:08:54;;;;;;;15.75;6.93;;;9.30;99.90;;;;;;5051829;28;20049;-72
2023/11/06 06:11:20;;;;;;;14.55;7.97;;;9.30;99.90;;;;;;5051471;28;20029;-75
2023/11/06 06:13:46;;;;;;;16.20;8.45;;;9.30;99.90;;;;;;5051923;28;20021;-74
2023/11/06 06:16:12;;;;;;;20.75;8.07;;;9.30;99.90;;;;;;5051352;28;20032;-75
2023/11/06 06:18:38;;;;;;;17.73;8.60;;;9.30;99.90;;;;;;5049136;28;20060;-73
2023/11/06 06:21:03;;;;;;;16.10;9.18;;;9.30;99.90;;;;;;5051534;28;20524;-75
2023/11/06 06:23:29;;;;;;;15.80;8.95;;;9.40;99.90;;;;;;5051572;28;20048;-74
2023/11/06 06:25:55;;;;;;;21.33;10.00;;;9.40;99.90;;;;;;5050207;28;20024;-75
2023/11/06 06:28:21;;;;;;;15.75;8.93;;;9.30;99.90;;;;;;5050314;28;20139;-75
2023/11/06 06:30:47;;;;;;;20.52;9.68;;;9.40;99.90;;;;;;5052305;28;20021;-77
2023/11/06 06:33:12;;;;;;;17.75;9.02;;;9.40;99.90;;;;;;5050853;28;20367;-76
2023/11/06 06:35:38;;;;;;;20.63;9.77;;;9.40;99.90;;;;;;5051242;28;20458;-74
2023/11/06 06:38:03;;;;;;;22.65;8.45;;;9.30;99.90;;;;;;5047529;28;20041;-72
2023/11/06 06:40:29;;;;;;;20.52;9.65;;;9.30;99.90;;;;;;5040188;28;20042;-72
2023/11/06 06:42:54;;;;;;;21.75;10.40;;;9.30;99.90;;;;;;5048852;28;20040;-73
2023/11/06 06:45:20;;;;;;;20.77;10.18;;;9.30;99.90;;;;;;5050030;28;20064;-76
2023/11/06 06:47:46;;;;;;;23.13;8.63;;;9.30;99.90;;;;;;5050798;28;20029;-75
2023/11/06 06:50:11;;;;;;;24.52;9.70;;;9.30;99.90;;;;;;5050084;28;20132;-76
2023/11/06 06:52:37;;;;;;;22.95;9.68;;;9.40;99.90;;;;;;5049474;28;20025;-73
2023/11/06 06:55:03;;;;;;;23.17;8.93;;;9.30;99.90;;;;;;5049546;28;20022;-76
2023/11/06 06:57:29;;;;;;;19.75;8.73;;;9.40;99.90;;;;;;5049144;28;20154;-76
2023/11/06 06:59:55;;;;;;;27.63;10.45;;;9.40;99.90;;;;;;5049727;28;20085;-77
2023/11/06 07:02:21;;;;;;;27.27;11.20;;;9.30;99.90;;;;;;5046190;28;20101;-76
2023/11/06 07:04:48;;;;;;;22.30;10.32;;;9.40;99.90;;;;;;5048202;28;20033;-77
2023/11/06 07:07:13;;;;;;;28.08;11.77;;;9.40;99.90;;;;;;5049242;28;20502;-76
2023/11/06 07:09:39;;;;;;;24.85;12.25;;;9.40;99.90;;;;;;5048520;28;20044;-78
2023/11/06 07:12:04;;;;;;;26.08;12.68;;;9.30;99.90;;;;;;5050517;28;20027;-76
2023/11/06 07:14:31;;;;;;;25.48;11.55;;;9.30;99.90;;;;;;5049880;28;20018;-77
2023/11/06 07:17:03;;;;;;;27.10;10.98;;;9.30;99.90;;;;;;5048578;28;20104;-74
2023/11/06 07:19:29;;;;;;;29.77;11.55;;;9.30;99.90;;;;;;5046964;28;20034;-77
2023/11/06 07:21:54;;;;;;;23.85;12.18;;;9.30;99.90;;;;;;5050690;28;20093;-77
2023/11/06 07:24:20;;;;;;;24.98;11.02;;;9.30;99.90;;;;;;5050179;28;20078;-73
2023/11/06 07:26:46;;;;;;;27.10;12.55;;;9.20;99.90;;;;;;5050620;28;20032;-77
2023/11/06 07:29:11;;;;;;;30.27;11.20;;;9.30;99.90;;;;;;5050396;28;20082;-75
2023/11/06 07:31:37;;;;;;;19.98;11.00;;;9.30;99.90;;;;;;5049358;28;20075;-75
2023/11/06 07:34:03;;;;;;;29.00;12.38;;;9.40;99.90;;;;;;5050283;28;20458;-76
2023/11/06 07:36:28;;;;;;;30.05;12.63;;;9.40;99.90;;;;;;5047941;28;20025;-78
2023/11/06 07:38:57;;;;;;;25.55;11.95;;;9.20;99.90;;;;;;5048612;28;20041;-75
2023/11/06 07:41:24;;;;;;;27.42;11.90;;;9.40;99.90;;;;;;5048803;28;20030;-75
2023/11/06 07:43:49;;;;;;;27.98;11.93;;;9.40;99.90;;;;;;5048635;28;20025;-77
2023/11/06 07:46:19;;;;;;;25.20;11.05;;;9.40;99.90;;;;;;5050835;28;20219;-73
2023/11/06 07:48:45;;;;;;;27.83;11.57;;;9.40;99.90;;;;;;5049264;28;20094;-75
2023/11/06 07:51:12;;;;;;;28.38;11.63;;;9.40;99.90;;;;;;5047440;28;20022;-76
2023/11/06 07:53:38;;;;;;;30.02;11.70;;;9.50;99.90;;;;;;5048583;28;20219;-75
2023/11/06 07:56:09;;;;;;;31.05;11.02;;;9.50;99.90;;;;;;5048799;28;20061;-77
2023/11/06 07:58:35;;;;;;;25.63;11.63;;;9.50;99.90;;;;;;5050896;28;20025;-74
2023/11/06 08:01:00;;;;;;;29.83;11.32;;;9.50;99.90;;;;;;5048812;28;20032;-75
2023/11/06 08:03:26;;;;;;;23.73;9.65;;;9.70;99.90;;;;;;5047449;28;20037;-77
2023/11/06 08:05:52;;;;;;;26.45;12.07;;;9.60;99.90;;;;;;5049044;28;20021;-75
2023/11/06 08:08:19;;;;;;;26.58;11.65;;;9.70;99.90;;;;;;5046986;28;20088;-76
2023/11/06 08:10:45;;;;;;;29.10;10.68;;;9.70;99.90;;;;;;5050184;28;20338;-77
2023/11/06 08:13:11;;;;;;;23.13;10.48;;;9.80;99.90;;;;;;5048127;28;20528;-75
2023/11/06 08:15:36;;;;;;;28.83;11.20;;;9.90;99.90;;;;;;5047562;28;20077;-75
2023/11/06 08:18:02;;;;;;;22.88;10.10;;;9.90;99.90;;;;;;5046119;28;20038;-74
2023/11/06 08:20:28;;;;;;;23.05;9.25;;;10.00;99.90;;;;;;5046010;28;20029;-75
2023/11/06 08:22:54;;;;;;;23.30;10.88;;;10.00;99.90;;;;;;5051302;28;20038;-78
2023/11/06 08:25:24;;;;;;;22.33;8.75;;;10.00;99.90;;;;;;5054003;28;20025;-74
2023/11/06 08:28:02;;;;;;;19.88;8.35;;;10.00;99.90;;;;;;5052818;28;20032;-75
2023/11/06 08:30:28;;;;;;;22.75;9.05;;;10.10;99.90;;;;;;5052675;28;20025;-74
2023/11/06 08:32:54;;;;;;;26.73;7.63;;;10.00;99.90;;;;;;5054046;28;20032;-75
2023/11/06 08:35:19;;;;;;;20.63;8.40;;;10.00;99.90;;;;;;5051931;28;20026;-76
2023/11/06 08:37:46;;;;;;;18.25;8.65;;;10.10;99.90;;;;;;5049616;28;20091;-77
2023/11/06 08:40:17;;;;;;;22.10;8.30;;;10.20;99.90;;;;;;5051898;28;20029;-74
2023/11/06 08:42:44;;;;;;;18.80;8.38;;;10.20;99.90;;;;;;5052484;28;20477;-75
2023/11/06 08:45:10;;;;;;;21.48;7.35;;;10.10;99.90;;;;;;5052788;28;20063;-75
2023/11/06 08:47:39;;;;;;;16.55;7.97;;;10.10;99.90;;;;;;5052270;28;20024;-76
2023/11/06 08:50:06;;;;;;;24.83;8.00;;;10.10;99.90;;;;;;5049585;28;20045;-73
2023/11/06 08:52:31;;;;;;;17.25;7.50;;;10.10;99.90;;;;;;5052321;28;20113;-75
2023/11/06 08:54:57;;;;;;;14.98;7.72;;;10.10;99.90;;;;;;5049076;28;20029;-75
2023/11/06 08:57:24;;;;;;;19.30;7.97;;;10.10;99.90;;;;;;5051160;28;20037;-75
2023/11/06 08:59:50;;;;;;;25.60;7.47;;;10.10;99.90;;;;;;5046713;28;20067;-77
2023/11/06 09:02:16;;;;;;;18.17;8.57;;;10.10;99.90;;;;;;5050300;28;20025;-75
2023/11/06 09:04:42;;;;;;;20.55;7.55;;;10.00;99.90;;;;;;5044151;28;20036;-75
2023/11/06 09:07:12;;;;;;;15.90;6.85;;;10.10;99.90;;;;;;5049912;28;20029;-77
2023/11/06 09:09:40;;;;;;;15.65;7.03;;;10.10;99.90;;;;;;5049258;28;20210;-75
2023/11/06 09:12:06;;;;;;;14.18;6.72;;;10.10;99.90;;;;;;5051666;28;20071;-76
2023/11/06 09:14:32;;;;;;;19.10;7.40;;;10.10;99.90;;;;;;5051891;28;20035;-77
2023/11/06 09:17:04;;;;;;;16.77;6.93;;;10.10;99.90;;;;;;5051966;28;20033;-76
2023/11/06 09:19:39;;;;;;;16.08;6.88;;;10.10;99.90;;;;;;5052710;28;20022;-76
2023/11/06 09:22:05;;;;;;;18.15;6.93;;;10.00;99.90;;;;;;5051159;28;20044;-76
2023/11/06 09:24:30;;;;;;;15.45;7.05;;;10.20;99.90;;;;;;5048542;28;20501;-76
2023/11/06 09:27:06;;;;;;;14.40;6.03;;;10.10;99.90;;;;;;5051774;28;20029;-75
2023/11/06 09:29:32;;;;;;;20.50;6.30;;;10.10;99.90;;;;;;5050957;28;20113;-77
2023/11/06 09:31:58;;;;;;;21.70;6.78;;;10.10;99.90;;;;;;5052641;28;20029;-76
2023/11/06 09:34:27;;;;;;;15.70;7.13;;;10.20;99.90;;;;;;5052216;28;20049;-75
2023/11/06 09:36:53;;;;;;;16.63;6.95;;;10.10;99.90;;;;;;5050971;28;20046;-77
2023/11/06 09:39:21;;;;;;;11.07;5.45;;;10.20;99.90;;;;;;5052023;28;20026;-76
2023/11/06 09:41:48;;;;;;;12.60;5.25;;;10.20;99.90;;;;;;5052544;28;20108;-71
2023/11/06 09:44:14;;;;;;;12.63;5.53;;;10.20;99.90;;;;;;5050937;28;20079;-79
2023/11/06 09:46:40;;;;;;;13.65;4.88;;;10.20;99.90;;;;;;5049432;28;20060;-75
2023/11/06 09:49:14;;;;;;;11.60;4.65;;;10.30;99.90;;;;;;5052788;28;20037;-74
2023/11/06 09:51:40;;;;;;;;;;;10.20;99.90;;;;;;5052533;28;20852;-76
2023/11/06 09:54:10;;;;;;;15.38;5.55;;;10.30;99.90;;;;;;5051205;28;19909;-77
2023/11/06 09:56:42;;;;;;;9.95;4.40;;;10.30;99.90;;;;;;5050420;28;20452;-75
2023/11/06 09:59:08;;;;;;;15.93;4.30;;;10.30;99.90;;;;;;5051776;28;20116;-76
2023/11/06 10:01:34;;;;;;;16.15;4.40;;;10.40;99.90;;;;;;5051924;28;20350;-77
2023/11/06 10:04:01;;;;;;;10.38;4.60;;;10.30;99.90;;;;;;5050255;28;20036;-75
2023/11/06 10:06:27;;;;;;;7.90;4.07;;;10.30;99.90;;;;;;5051934;28;20026;-71
2023/11/06 10:08:53;;;;;;;17.95;4.90;;;10.30;99.90;;;;;;5050467;28;20035;-75
2023/11/06 10:11:25;;;;;;;12.80;4.03;;;10.30;99.90;;;;;;5042256;28;20563;-75
2023/11/06 10:13:56;;;;;;;8.27;3.95;;;10.30;99.90;;;;;;5050441;28;20029;-79
2023/11/06 10:16:25;;;;;;;11.00;4.15;;;10.40;99.90;;;;;;5051193;28;20083;-74
2023/11/06 10:19:10;;;;;;;13.50;4.50;;;10.30;99.90;;;;;;5051224;28;20147;-78
2023/11/06 10:21:36;;;;;;;11.63;4.40;;;10.40;99.90;;;;;;5048366;28;20024;-74
2023/11/06 10:24:05;;;;;;;13.32;4.57;;;10.40;99.90;;;;;;5051197;28;20048;-74
2023/11/06 10:26:31;;;;;;;15.82;4.45;;;10.50;99.90;;;;;;5051724;28;20045;-76
2023/11/06 10:29:17;;;;;;;12.20;3.97;;;10.50;99.90;;;;;;5051711;28;20051;-76
2023/11/06 10:31:44;;;;;;;12.18;4.05;;;10.60;99.90;;;;;;5051521;28;20550;-74
2023/11/06 10:34:27;;;;;;;18.20;4.25;;;10.50;99.90;;;;;;5050873;28;21302;-76
2023/11/06 10:37:14;;;;;;;14.75;4.40;;;10.60;99.90;;;;;;5047775;28;20034;-73
2023/11/06 10:39:51;;;;;;;9.07;4.45;;;10.60;99.90;;;;;;5045048;28;20437;-74
2023/11/06 10:42:22;;;;;;;12.48;5.10;;;10.60;99.90;;;;;;5046508;28;20041;-77
2023/11/06 10:44:58;;;;;;;18.70;4.57;;;10.60;99.90;;;;;;5048893;28;20116;-75
2023/11/06 10:47:42;;;;;;;12.48;4.45;;;10.60;99.90;;;;;;5049442;28;20114;-75
2023/11/06 10:50:21;;;;;;;13.60;4.43;;;10.70;99.90;;;;;;5050012;28;20025;-77
2023/11/06 10:52:54;;;;;;;11.35;4.28;;;10.70;99.90;;;;;;5050659;28;20033;-76
2023/11/06 10:55:22;;;;;;;17.45;4.40;;;10.70;99.90;;;;;;5049746;28;20040;-77
2023/11/06 10:57:54;;;;;;;11.57;4.00;;;10.70;99.90;;;;;;5048123;28;20041;-74
2023/11/06 11:00:21;;;;;;;13.65;4.22;;;10.70;99.90;;;;;;5051067;28;20092;-76
2023/11/06 11:02:54;;;;;;;9.32;3.55;;;10.70;99.90;;;;;;5050266;28;20033;-76
2023/11/06 11:05:24;;;;;;;15.27;4.35;;;10.60;99.90;;;;;;5048474;28;20442;-74
2023/11/06 11:07:51;;;;;;;10.15;3.83;;;10.70;99.90;;;;;;5049605;28;20021;-74
2023/11/06 11:10:26;;;;;;;9.77;3.78;;;10.60;99.90;;;;;;5048350;28;20495;-73
2023/11/06 11:12:57;;;;;;;15.65;3.97;;;10.60;99.90;;;;;;5049198;28;20028;-75
2023/11/06 11:15:34;;;;;;;15.20;3.75;;;10.60;99.90;;;;;;5050684;28;20056;-74
2023/11/06 11:18:05;;;;;;;7.60;3.13;;;10.60;99.90;;;;;;5050379;28;20080;-76
2023/11/06 11:20:51;;;;;;;13.95;3.08;;;10.60;99.90;;;;;;5050577;28;20021;-74
2023/11/06 11:23:37;;;;;;;15.95;3.20;;;10.60;99.90;;;;;;5049979;28;20040;-75
2023/11/06 11:26:09;;;;;;;9.35;3.13;;;10.60;99.90;;;;;;5050115;28;20028;-74
2023/11/06 11:28:59;;;;;;;12.05;3.05;;;10.60;99.90;;;;;;5048401;28;20466;-73
2023/11/06 11:31:43;;;;;;;10.25;3.00;;;10.60;99.90;;;;;;5045455;28;20049;-76
2023/11/06 11:34:26;;;;;;;7.78;2.55;;;10.70;99.90;;;;;;5049489;28;20025;-75
2023/11/06 11:36:53;;;;;;;11.25;3.33;;;10.70;99.90;;;;;;5049957;28;20032;-76
2023/11/06 11:39:22;;;;;;;13.35;2.75;;;10.70;99.90;;;;;;5048624;28;20028;-73
2023/11/06 11:42:07;;;;;;;8.35;2.55;;;10.70;99.90;;;;;;5047091;28;20024;-78
2023/11/06 11:44:33;;;;;;;10.68;3.78;;;10.80;99.90;;;;;;5049149;28;20101;-75
2023/11/06 11:47:00;;;;;;;8.57;2.95;;;10.90;99.90;;;;;;5049505;28;20017;-75
2023/11/06 11:49:46;;;;;;;7.88;2.85;;;10.90;99.90;;;;;;5048074;28;20053;-75
2023/11/06 11:52:35;;;;;;;12.88;2.80;;;10.90;99.90;;;;;;5047825;28;20029;-74
2023/11/06 11:55:37;;;;;;;12.65;3.00;;;11.00;99.90;;;;;;5049179;28;20117;-75
2023/11/06 11:58:14;;;;;;;11.68;2.85;;;11.00;99.90;;;;;;5053152;28;20034;-75
2023/11/06 12:00:42;;;;;;;10.65;2.97;;;11.00;99.90;;;;;;5052368;28;20091;-75
2023/11/06 12:03:11;;;;;;;14.43;3.42;;;11.20;99.90;;;;;;5054277;28;20025;-74
2023/11/06 12:05:38;;;;;;;10.52;3.25;;;11.40;99.90;;;;;;5054271;28;20021;-74
2023/11/06 12:08:34;;;;;;;13.90;3.35;;;11.60;99.90;;;;;;5054089;28;20405;-74
2023/11/06 12:11:10;;;;;;;8.27;2.65;;;11.60;99.90;;;;;;5045783;28;20129;-73
2023/11/06 12:13:36;;;;;;;11.00;2.47;;;11.90;99.90;;;;;;5053730;28;20025;-74
2023/11/06 12:16:05;;;;;;;12.57;3.13;;;11.90;99.90;;;;;;5054365;28;20367;-77
2023/11/06 12:18:31;;;;;;;8.93;3.05;;;11.90;99.90;;;;;;5053820;28;20072;-75
2023/11/06 12:20:57;;;;;;;11.18;2.70;;;11.90;99.90;;;;;;5054108;28;20386;-76
2023/11/06 12:23:33;;;;;;;6.78;2.15;;;11.80;99.90;;;;;;5052562;28;20057;-73
2023/11/06 12:26:12;;;;;;;10.85;2.50;;;11.60;99.90;;;;;;5054080;28;20025;-74
2023/11/06 12:28:47;;;;;;;11.25;2.63;;;11.50;99.90;;;;;;5053851;28;20797;-75
2023/11/06 12:31:13;;;;;;;8.52;2.60;;;11.40;99.90;;;;;;5053810;28;20033;-76
2023/11/06 12:33:39;;;;;;;9.25;2.40;;;11.30;99.90;;;;;;5053765;28;20034;-74
2023/11/06 12:36:06;;;;;;;10.18;2.40;;;11.30;99.90;;;;;;5053081;28;20028;-73
2023/11/06 12:38:39;;;;;;;8.02;2.60;;;11.20;99.90;;;;;;5052460;28;20025;-77
2023/11/06 12:41:05;;;;;;;12.85;3.00;;;11.20;99.90;;;;;;5049780;28;20097;-75
2023/11/06 12:43:32;;;;;;;7.63;2.22;;;11.20;99.90;;;;;;5051273;28;20034;-75
2023/11/06 12:45:59;;;;;;;10.50;2.28;;;11.10;99.90;;;;;;5053182;28;20032;-76